• Join FlightAware (Why Join?)
  • Login
  • US Flag 
08:37PM EDT


 

Airport Tracker/Info


-or-


 

Live Flight TrackerFlight Track Log ✈ N1944E ✈ 14-Aug-2013 ✈ KCOE - 6S5

Flight Track Log - Related Links

Times and Time Zones

All times are in EDT time to prevent confusion due to time zone crossing. See the N1944E flight status page for this flight to view local times or setup timezone preferences in your user account.

Time Position Orientation Groundspeed Altitude Reporting Facility
EDT Latitude Longitude Course Direction KTS MPH feet Rate Location/Type
02:44PM 47.7044 -116.8228 130° Southeast 138 159 7,000  Level Seattle Center
02:45PM 47.6994 -116.7647 97° East 139 160 7,900 780 Climbing Seattle Center
02:46PM 47.7028 -116.7036 85° East 147 169 8,700 780 Climbing Seattle Center
02:47PM 47.6867 -116.6481 113° Southeast 147 169 9,600 780 Climbing Seattle Center
02:48PM 47.6578 -116.6036 134° Southeast 148 170 10,400 780 Climbing Seattle Center
02:49PM 47.6297 -116.5533 130° Southeast 156 180 11,300 840 Climbing Seattle Center
02:50PM 47.5867 -116.4850 130° Southeast  Level FlightAware Approximate
02:50PM 47.6022 -116.5028 129° Southeast 154 177 12,200  Level Seattle Center
02:51PM 47.5758 -116.4450 124° Southeast 166 191 13,000 840 Climbing Seattle Center
02:52PM 47.5417 -116.3797 128° Southeast 166 191 14,000 900 Climbing Seattle Center
02:53PM 47.5089 -116.3286 134° Southeast 170 196 14,900 480 Climbing Seattle Center
02:54PM 47.4750 -116.2700 131° Southeast 183 211 15,000  Climbing Seattle Center
02:55PM 47.4397 -116.2058 129° Southeast 199 229 15,000  Level Seattle Center
02:56PM 47.4061 -116.1400 127° Southeast 202 232 15,000  Level Seattle Center
02:57PM 47.3669 -116.0744 131° Southeast 212 244 15,100  Climbing Seattle Center
02:58PM 47.3317 -116.0081 128° Southeast 208 239 15,000  Descending Seattle Center
02:59PM 47.2931 -115.9439 132° Southeast 209 241 15,100 -60 Climbing Seattle Center
03:01PM 47.2542 -115.8772 131° Southeast 213 245 14,900 -120 Descending Seattle Center
03:02PM 47.2097 -115.7989 130° Southeast 209 241 14,900  Level Seattle Center
03:03PM 47.1742 -115.7317 128° Southeast 209 241 14,900  Level Seattle Center
03:04PM 47.1369 -115.6681 131° Southeast 207 238 14,900  Level Seattle Center
03:05PM 47.0953 -115.5975 131° Southeast 208 239 15,000  Climbing Salt Lake Center
03:06PM 47.0608 -115.5289 126° Southeast 209 241 15,000 -60 Level Salt Lake Center
03:07PM 47.0258 -115.4608 127° Southeast 210 242 14,900  Descending Salt Lake Center
03:08PM 46.9922 -115.3919 126° Southeast 209 241 15,000 -60 Climbing Salt Lake Center
03:09PM 46.9592 -115.3264 126° Southeast 203 234 14,800 -60 Descending Seattle Center
03:10PM 46.9256 -115.2606 127° Southeast 202 232 14,900  Climbing Seattle Center
03:11PM 46.8883 -115.1978 131° Southeast 204 235 14,900  Level Seattle Center
03:12PM 46.8489 -115.1389 134° Southeast 204 235 15,000  Climbing Seattle Center
03:13PM 46.8103 -115.0761 132° Southeast 207 238 14,900  Descending Seattle Center
03:14PM 46.7647 -115.0031 132° Southeast 204 235 15,000  Climbing Seattle Center
03:15PM 46.7289 -114.9389 129° Southeast 204 235 15,000 -60 Level Seattle Center
03:16PM 46.6917 -114.8772 131° Southeast 204 235 14,900  Descending Seattle Center
03:17PM 46.6572 -114.8106 127° Southeast 206 237 15,000 -300 Climbing Seattle Center
03:18PM 46.6219 -114.7406 126° Southeast 212 244 14,300 -780 Descending Seattle Center
03:19PM 46.5797 -114.6703 131° Southeast 226 260 13,500 -840 Descending Seattle Center